Flight Track Log - Related Links

Times and Time Zones

All times are in EDT time to prevent confusion due to time zone crossing. See the NJE3C flight status page for this flight to view local times or setup timezone preferences in your user account.

Time Position Orientation Groundspeed Altitude Reporting Facility
EDT Latitude Longitude Course Direction KTS MPH feet Rate Location/Type
Fri 19:22:28 29.6564 -95.2672 North 160 184 800  Level Houston Center
Fri 19:23:17 29.6958 -95.2625 North 178 205 3,000 2,625 Climbing Houston Center
Fri 19:23:32 29.7058 -95.2639 353° North 176 203 3,600 2,692 Climbing Houston Center
Fri 19:24:35 29.7597 -95.2939 334° Northwest 211 243 6,500 2,736 Climbing Houston Center
Fri 19:25:37 29.8314 -95.2914 North 258 297 9,300 2,274 Climbing Houston Center
Fri 19:26:39 29.9125 -95.2789 North 288 331 11,200 2,177 Climbing Houston Center
Fri 19:27:41 30.0100 -95.2661 North 346 398 13,800 2,468 Climbing Houston Center
Fri 19:28:43 30.1122 -95.2514 North 366 421 16,300 2,274 Climbing Houston Center
Fri 19:29:45 30.2431 -95.2342 North 395 455 18,500 2,177 Climbing Houston Center
Fri 19:30:47 30.3561 -95.1961 16° North 424 488 20,800 2,081 Climbing Houston Center
Fri 19:31:49 30.4825 -95.1444 19° North 446 513 22,800 1,935 Climbing Houston Center
Fri 19:32:51 30.5994 -95.0692 29° Northeast 476 548 24,800 1,694 Climbing Houston Center
Fri 19:33:53 30.7211 -94.9931 28° Northeast 492 566 26,300 1,536 Climbing Houston Center
Fri 19:34:56 30.8489 -94.9131 28° Northeast 518 596 28,000 1,698 Climbing Houston Center
Fri 19:35:39 30.9556 -94.8481 28° Northeast 500 575 29,300 1,558 Climbing Fort Worth Center
Fri 19:36:40 31.0875 -94.7644 28° Northeast 515 593 30,700 1,200 Climbing Fort Worth Center
Fri 19:37:39 31.2089 -94.6883 28° Northeast 526 605 31,700 1,513 Climbing Fort Worth Center
Fri 19:38:39 31.3447 -94.5942 31° Northeast 547 629 33,700 1,900 Climbing Fort Worth Center
Fri 19:39:39 31.4783 -94.5000 31° Northeast 553 636 35,500 1,150 Climbing Fort Worth Center
Fri 19:40:39 31.6097 -94.4081 31° Northeast 553 636 36,000 250 Climbing Fort Worth Center
Fri 19:41:39 31.7411 -94.3158 31° Northeast 548 631 36,000  Level Fort Worth Center
Fri 19:42:39 31.8725 -94.2233 31° Northeast 548 631 36,000  Level Fort Worth Center
Fri 19:43:39 32.0036 -94.1331 30° Northeast 548 631 36,000 300 Level Fort Worth Center
Fri 19:44:39 32.1308 -94.0428 31° Northeast 548 631 36,600 850 Climbing Fort Worth Center
Fri 19:45:39 32.2719 -93.9392 32° Northeast 548 631 37,700 1,000 Climbing Fort Worth Center
Fri 19:46:39 32.4050 -93.8456 31° Northeast 548 631 38,600 900 Climbing Fort Worth Center
Fri 19:47:39 32.5358 -93.7492 32° Northeast 548 631 39,500 850 Climbing Fort Worth Center
Fri 19:48:39 32.6667 -93.6575 31° Northeast 548 631 40,300 750 Climbing Fort Worth Center
Fri 19:49:39 32.7956 -93.5656 31° Northeast 548 631 41,000 350 Climbing Fort Worth Center
Fri 19:50:39 32.9281 -93.4708 31° Northeast 548 631 41,000  Level Fort Worth Center
Fri 19:51:39 33.0608 -93.3733 32° Northeast 548 631 41,000  Level Fort Worth Center
Fri 19:52:39 33.1933 -93.2806 30° Northeast 548 631 41,000  Level Fort Worth Center
Fri 19:53:39 33.3281 -93.1847 31° Northeast 548 631 41,000  Level Fort Worth Center
Fri 19:54:53 33.4733 -93.0767 32° Northeast 574 661 41,000  Level Memphis Center
Fri 19:55:53 33.6047 -92.9811 31° Northeast 561 646 41,000  Level Memphis Center
Fri 19:56:53 33.7361 -92.8875 31° Northeast 556 640 41,000  Level Memphis Center
Fri 19:57:53 33.8675 -92.7889 32° Northeast 551 634 41,000  Level Memphis Center
Fri 19:58:53 34.0006 -92.6922 31° Northeast 546 628 41,000  Level Memphis Center
Fri 19:59:53 34.1425 -92.5808 33° Northeast 546 628 41,000  Level Memphis Center
Fri 20:00:53 34.2756 -92.4861 30° Northeast 546 628 41,000  Level Memphis Center
Fri 20:01:53 34.4089 -92.3836 32° Northeast 553 636 41,000  Level Memphis Center
Fri 20:02:53 34.5419 -92.2808 32° Northeast 553 636 41,000  Level Memphis Center
Fri 20:03:53 34.6603 -92.1903 32° Northeast 565 650 41,000  Level Memphis Center
Fri 20:04:53 34.7767 -92.0561 43° Northeast 559 643 41,000  Level Memphis Center
Fri 20:05:53 34.8850 -91.9139 47° Northeast 559 643 41,000  Level Memphis Center
Fri 20:06:53 34.9972 -91.7717 46° Northeast 569 655 41,000  Level Memphis Center
Fri 20:07:53 35.1072 -91.6314 46° Northeast 574 661 41,000  Level Memphis Center
Fri 20:08:53 35.2172 -91.4881 47° Northeast 574 661 41,000  Level Memphis Center
Fri 20:09:53 35.3267 -91.3494 46° Northeast 569 655 41,000  Level Memphis Center
Fri 20:10:53 35.4469 -91.1906 47° Northeast 569 655 41,000  Level Memphis Center
Fri 20:11:53 35.5561 -91.0486 47° Northeast 569 655 41,000  Level Memphis Center
Fri 20:12:53 35.6506 -90.9217 48° Northeast 569 655 41,000  Level Memphis Center
Fri 20:13:53 35.7681 -90.7639 47° Northeast 564 649 41,000  Level Memphis Center
Fri 20:14:53 35.8622 -90.6361 48° Northeast 559 643 41,000  Level Memphis Center
Fri 20:15:53 35.9708 -90.4928 47° Northeast 564 649 41,000  Level Memphis Center
Fri 20:16:53 36.0794 -90.3467 47° Northeast 569 655 41,000  Level Memphis Center
Fri 20:17:53 36.1897 -90.2000 47° Northeast 569 655 41,000  Level Memphis Center
Fri 20:18:53 36.2958 -90.0558 48° Northeast 569 655 41,000  Level Memphis Center
Fri 20:19:53 36.4058 -89.9083 47° Northeast 569 655 41,000  Level Memphis Center
Fri 20:20:53 36.5158 -89.7606 47° Northeast 569 655 41,000  Level Memphis Center
Fri 20:21:53 36.6253 -89.6122 47° Northeast 569 655 41,000  Level Memphis Center
Fri 20:22:53 36.7369 -89.4611 47° Northeast 569 655 41,000  Level Memphis Center
Fri 20:23:53 36.8419 -89.3122 49° Northeast 569 655 41,000  Level Memphis Center
Fri 20:24:53 36.9531 -89.1603 48° Northeast 569 655 41,000  Level Memphis Center
Fri 20:25:53 37.0703 -88.9972 48° Northeast 569 655 41,000  Level Memphis Center
Fri 20:26:53 37.1769 -88.8469 48° Northeast 569 655 41,000  Level Memphis Center
Fri 20:27:53 37.2875 -88.6936 48° Northeast 569 655 41,000  Level Memphis Center
Fri 20:28:53 37.3936 -88.5428 48° Northeast 569 655 41,000  Level Memphis Center
Fri 20:30:07 37.5100 -88.3653 50° Northeast 583 671 41,000  Level Indianapolis Center
Fri 20:31:09 37.6192 -88.2086 49° Northeast 585 673 41,000  Level Indianapolis Center
Fri 20:32:10 37.7281 -88.0528 49° Northeast 585 673 41,000  Level Indianapolis Center
Fri 20:33:12 37.8342 -87.8986 49° Northeast 588 677 41,000  Level Indianapolis Center
Fri 20:34:14 37.9628 -87.7111 49° Northeast 586 674 41,000  Level Indianapolis Center
Fri 20:35:15 38.0653 -87.5481 51° Northeast 587 676 41,000  Level Indianapolis Center
Fri 20:36:17 38.1683 -87.3864 51° Northeast 586 674 41,000  Level Indianapolis Center
Fri 20:37:18 38.2731 -87.2214 51° Northeast 587 676 41,000  Level Indianapolis Center
Fri 20:38:20 38.3769 -87.0542 52° Northeast 592 681 41,000  Level Indianapolis Center
Fri 20:39:21 38.4861 -86.8800 51° Northeast 588 677 41,000  Level Indianapolis Center
Fri 20:40:23 38.5886 -86.7161 51° Northeast 587 676 41,000  Level Indianapolis Center
Fri 20:41:24 38.6897 -86.5528 52° Northeast 585 673 41,000  Level Indianapolis Center
Fri 20:42:26 38.7914 -86.3875 52° Northeast 587 676 41,000  Level Indianapolis Center
Fri 20:43:27 38.8933 -86.2219 52° Northeast 589 678 41,000  Level Indianapolis Center
Fri 20:44:29 38.9944 -86.0547 52° Northeast 589 678 41,000  Level Indianapolis Center
Fri 20:45:30 39.0964 -85.8872 52° Northeast 591 680 41,000  Level Indianapolis Center
Fri 20:46:32 39.1981 -85.7197 52° Northeast 591 680 41,000  Level Indianapolis Center
Fri 20:47:33 39.3069 -85.5378 52° Northeast 591 680 41,000  Level Indianapolis Center
Fri 20:48:35 39.4128 -85.3722 50° Northeast 591 680 41,000  Level Indianapolis Center
Fri 20:49:36 39.5247 -85.2106 48° Northeast 595 685 41,000  Level Indianapolis Center
Fri 20:50:37 39.6314 -85.0461 50° Northeast 593 682 41,000  Level Indianapolis Center
Fri 20:51:39 39.7414 -84.8819 49° Northeast 594 684 41,000  Level Indianapolis Center
Fri 20:52:40 39.8489 -84.7181 49° Northeast 590 679 41,000  Level Indianapolis Center
Fri 20:53:41 39.9583 -84.5519 49° Northeast 594 684 41,000  Level Indianapolis Center
Fri 20:54:43 40.0669 -84.3856 50° Northeast 595 685 41,000  Level Indianapolis Center
Fri 20:55:44 40.1742 -84.2181 50° Northeast 594 684 41,000  Level Indianapolis Center
Fri 20:56:46 40.2831 -84.0486 50° Northeast 596 686 41,000  Level Indianapolis Center
Fri 20:57:47 40.3869 -83.8736 52° Northeast 599 689 41,000  Level Indianapolis Center
Fri 20:58:48 40.4889 -83.6964 53° Northeast 599 689 41,000  Level Indianapolis Center
Fri 20:59:50 40.5914 -83.5203 52° Northeast 598 688 41,000  Level Indianapolis Center
Fri 21:00:33 40.6792 -83.3703 52° Northeast 603 694 41,000  Level Cleveland Center
Fri 21:01:33 40.7794 -83.1936 53° Northeast 608 700 41,000  Level Cleveland Center
Fri 21:02:33 40.8706 -83.0353 53° Northeast 608 700 41,000  Level Cleveland Center
Fri 21:03:33 40.9700 -82.8575 53° Northeast 608 700 41,000  Level Cleveland Center
Fri 21:04:33 41.0694 -82.6792 53° Northeast 608 700 41,000  Level Cleveland Center
Fri 21:05:33 41.1869 -82.5144 47° Northeast 608 700 41,000  Level Cleveland Center
Fri 21:06:33 41.3325 -82.4083 29° Northeast 600 690 41,000  Level Cleveland Center
Fri 21:07:33 41.4947 -82.2908 28° Northeast 600 690 41,000  Level Cleveland Center
Fri 21:08:33 41.6422 -82.1836 29° Northeast 595 685 41,000  Level Cleveland Center
Fri 21:09:33 41.7897 -82.0786 28° Northeast 590 679 41,000  Level Cleveland Center
Fri 21:10:33 41.9369 -81.9703 29° Northeast 596 686 41,000  Level Cleveland Center
Fri 21:11:33 42.0842 -81.8617 29° Northeast 591 680 41,000  Level Cleveland Center
Fri 21:12:33 42.2186 -81.7636 28° Northeast 591 680 41,000  Level Cleveland Center
Fri 21:13:33 42.3678 -81.6539 29° Northeast 597 687 41,000  Level Cleveland Center
Fri 21:14:33 42.5167 -81.5467 28° Northeast 597 687 41,000  Level Cleveland Center
Fri 21:15:33 42.6614 -81.4386 29° Northeast 597 687 41,000  Level Cleveland Center
Fri 21:17:47 42.9833 -81.1667 32° Northeast 610 702 41,000  Level Toronto Center
Fri 21:18:47 43.1333 -81.0000 39° Northeast 610 702 41,000  Level Toronto Center
Fri 21:19:47 43.2500 -80.8500 43° Northeast 610 702 41,000  Level Toronto Center
Fri 21:20:47 43.3833 -80.6833 42° Northeast 610 702 41,000  Level Toronto Center
Fri 21:21:47 43.5000 -80.5000 49° Northeast 610 702 41,000  Level Toronto Center
Fri 21:22:47 43.6167 -80.3500 43° Northeast 620 713 41,000  Level Toronto Center
Fri 21:23:47 43.7333 -80.1833 46° Northeast 610 702 41,000  Level Toronto Center
Fri 21:24:47 43.8667 -80.0333 39° Northeast 610 702 41,000  Level Toronto Center
Fri 21:25:47 43.9833 -79.8667 46° Northeast 610 702 41,000  Level Toronto Center
Fri 21:26:47 44.1000 -79.7000 46° Northeast 620 713 41,000  Level Toronto Center
Fri 21:27:47 44.2333 -79.5167 45° Northeast 620 713 41,000  Level Toronto Center
Fri 21:28:47 44.3500 -79.3500 46° Northeast 610 702 41,000  Level Toronto Center
Fri 21:29:47 44.4833 -79.1833 42° Northeast 610 702 41,000  Level Toronto Center
Fri 21:30:47 44.6000 -79.0167 45° Northeast 610 702 41,000  Level Toronto Center
Fri 21:31:54 44.7167 -78.8500 45° Northeast 610 702 41,000  Level Montreal Center
Fri 21:32:54 44.8333 -78.6833 45° Northeast 620 713 41,000  Level Montreal Center
Fri 21:33:54 44.9667 -78.5000 44° Northeast 610 702 41,000  Level Montreal Center
Fri 21:34:54 45.0833 -78.3333 45° Northeast 610 702 41,000  Level Montreal Center
Fri 21:35:54 45.2000 -78.1833 42° Northeast 610 702 41,000  Level Montreal Center
Fri 21:36:54 45.3167 -78.0000 48° Northeast 610 702 41,000  Level Montreal Center
Fri 21:37:54 45.4500 -77.8000 46° Northeast 610 702 41,000  Level Montreal Center
Fri 21:38:54 45.5667 -77.6500 42° Northeast 610 702 41,000  Level Montreal Center
Fri 21:39:54 45.6833 -77.4500 50° Northeast 610 702 41,000  Level Montreal Center
Fri 21:40:54 45.7833 -77.2833 49° Northeast 610 702 41,000  Level Montreal Center
Fri 21:41:54 45.9167 -77.1000 44° Northeast 610 702 41,000  Level Montreal Center
Fri 21:42:54 46.0167 -76.9333 49° Northeast 620 713 41,000  Level Montreal Center
Fri 21:43:54 46.1500 -76.7500 44° Northeast 610 702 41,000  Level Montreal Center
Fri 21:44:54 46.2667 -76.5667 47° Northeast 610 702 41,000  Level Montreal Center
Fri 21:45:54 46.3833 -76.3833 47° Northeast 610 702 41,000  Level Montreal Center
Fri 21:46:54 46.5000 -76.2167 44° Northeast 610 702 41,000  Level Montreal Center
Fri 21:47:54 46.6167 -76.0167 50° Northeast 610 702 41,000  Level Montreal Center
Fri 21:48:54 46.7333 -75.8500 44° Northeast 610 702 41,000  Level Montreal Center
Fri 21:49:54 46.8500 -75.6667 47° Northeast 610 702 41,000  Level Montreal Center
Fri 21:50:54 46.9667 -75.4833 47° Northeast 610 702 41,000  Level Montreal Center
Fri 21:51:54 47.0667 -75.2833 54° Northeast 610 702 41,000  Level Montreal Center
Fri 21:52:54 47.1833 -75.1000 47° Northeast 610 702 41,000  Level Montreal Center
Fri 21:53:54 47.3000 -74.9000 49° Northeast 610 702 41,000  Level Montreal Center
Fri 21:54:54 47.4167 -74.7333 44° Northeast 600 690 41,000  Level Montreal Center
Fri 21:55:54 47.5333 -74.5500 47° Northeast 600 690 41,000  Level Montreal Center
Fri 21:56:54 47.6333 -74.3667 51° Northeast 600 690 41,000  Level Montreal Center
Fri 21:57:54 47.7333 -74.1667 53° Northeast 590 679 41,000  Level Montreal Center
Fri 21:58:54 47.8500 -73.9833 46° Northeast 590 679 41,000  Level Montreal Center
Fri 21:59:54 47.9667 -73.7833 49° Northeast 600 690 41,000  Level Montreal Center
Fri 22:00:54 48.0667 -73.6000 51° Northeast 600 690 41,000  Level Montreal Center
Fri 22:01:54 48.1833 -73.4167 46° Northeast 590 679 41,000  Level Montreal Center
Fri 22:02:54 48.3000 -73.2333 46° Northeast 590 679 41,000  Level Montreal Center
Fri 22:03:54 48.3833 -73.0500 56° Northeast 580 667 41,000  Level Montreal Center
Fri 22:04:54 48.5000 -72.8667 46° Northeast 580 667 41,000  Level Montreal Center
Fri 22:05:54 48.6000 -72.6833 50° Northeast 580 667 41,000  Level Montreal Center
Fri 22:06:54 48.7167 -72.5000 46° Northeast 580 667 41,000  Level Montreal Center
Fri 22:07:54 48.8000 -72.3167 55° Northeast 580 667 41,000  Level Montreal Center
Fri 22:08:54 48.9167 -72.1000 51° Northeast 580 667 41,000  Level Montreal Center
Fri 22:09:54 49.0333 -71.9167 46° Northeast 580 667 41,000  Level Montreal Center
Fri 22:10:54 49.1167 -71.7333 55° Northeast 580 667 41,000  Level Montreal Center
Fri 22:11:54 49.2333 -71.5333 48° Northeast 580 667 41,000  Level Montreal Center
Fri 22:12:54 49.3333 -71.3500 50° Northeast 590 679 41,000  Level Montreal Center
Fri 22:13:54 49.4333 -71.1500 52° Northeast 590 679 41,000  Level Montreal Center
Fri 22:14:54 49.5500 -70.9333 50° Northeast 590 679 41,000  Level Montreal Center
Fri 22:15:54 49.6500 -70.7500 50° Northeast 600 690 41,000  Level Montreal Center
Fri 22:16:54 49.7500 -70.5500 52° Northeast 600 690 41,000  Level Montreal Center
Fri 22:17:54 49.8500 -70.3500 52° Northeast 590 679 41,000  Level Montreal Center
Fri 22:18:54 49.9667 -70.1500 48° Northeast 590 679 41,000  Level Montreal Center
Fri 22:19:54 50.0667 -69.9333 54° Northeast 590 679 41,000  Level Montreal Center
Fri 22:20:54 50.1500 -69.7333 57° Northeast 590 679 41,000  Level Montreal Center
Fri 22:21:54 50.2667 -69.5333 48° Northeast 590 679 41,000  Level Montreal Center
Fri 22:22:54 50.3667 -69.3333 52° Northeast 590 679 41,000  Level Montreal Center
Fri 22:23:54 50.4667 -69.1167 54° Northeast 590 679 41,000  Level Montreal Center
Fri 22:24:54 50.5667 -68.9167 52° Northeast 600 690 41,000  Level Montreal Center
Fri 22:25:54 50.6667 -68.6833 56° Northeast 590 679 41,000  Level Montreal Center
Fri 22:26:54 50.7667 -68.5000 49° Northeast 590 679 41,000  Level Montreal Center
Fri 22:27:54 50.8667 -68.3000 52° Northeast 590 679 41,000  Level Montreal Center
Fri 22:28:54 50.9667 -68.0667 56° Northeast 600 690 41,000  Level Montreal Center
Fri 22:29:54 51.0667 -67.8667 51° Northeast 600 690 41,000  Level Montreal Center
Fri 22:30:54 51.1667 -67.6333 56° Northeast 590 679 41,000  Level Montreal Center
Fri 22:31:54 51.2500 -67.4500 54° Northeast 580 667 41,000  Level Montreal Center
Fri 22:32:54 51.3667 -67.2500 47° Northeast 580 667 41,000  Level Montreal Center
Fri 22:33:54 51.4667 -67.0333 53° Northeast 580 667 41,000  Level Montreal Center
Fri 22:34:54 51.5667 -66.8167 53° Northeast 580 667 41,000  Level Montreal Center
Fri 22:35:54 51.6667 -66.6167 51° Northeast 580 667 41,000  Level Montreal Center
Fri 22:36:54 51.7667 -66.4000 53° Northeast 590 679 41,000  Level Montreal Center
Fri 22:37:54 51.8667 -66.1833 53° Northeast 590 679 41,000  Level Montreal Center
Fri 22:38:54 51.9667 -66.0000 48° Northeast 590 679 41,000  Level Montreal Center
Fri 22:39:54 52.0500 -65.7833 58° Northeast 590 679 41,000  Level Montreal Center
Fri 22:40:39 52.1500 -65.6500 39° Northeast 590 679 41,000  Level Gander Center
Fri 22:41:39 52.2333 -65.4333 58° Northeast 590 679 41,000  Level Gander Center
Fri 22:42:39 52.3500 -65.2167 49° Northeast 600 690 41,000  Level Gander Center
Fri 22:43:39 52.4333 -65.0167 56° Northeast 590 679 41,000  Level Gander Center
Fri 22:44:39 52.5333 -64.8000 53° Northeast 590 679 41,000  Level Gander Center
Fri 22:45:39 52.6333 -64.5667 55° Northeast 590 679 41,000  Level Gander Center
Fri 22:46:39 52.7167 -64.3500 58° Northeast 590 679 41,000  Level Gander Center
Fri 22:47:39 52.8167 -64.1333 53° Northeast 580 667 41,000  Level Gander Center
Fri 22:48:39 52.9000 -63.9167 57° Northeast 570 656 41,000  Level Gander Center
Fri 22:49:39 53.0000 -63.7000 52° Northeast 580 667 41,000  Level Gander Center
Fri 22:50:39 53.1000 -63.4833 52° Northeast 580 667 41,000  Level Gander Center
Fri 22:51:39 53.1833 -63.2667 57° Northeast 580 667 41,000  Level Gander Center
Fri 22:52:39 53.2833 -63.0500 52° Northeast 580 667 41,000  Level Gander Center
Fri 22:53:39 53.3667 -62.8167 59° Northeast 570 656 41,000  Level Gander Center
Fri 22:54:39 53.4500 -62.6000 57° Northeast 580 667 41,000  Level Gander Center
Fri 22:55:39 53.5333 -62.3833 57° Northeast 580 667 41,000  Level Gander Center
Fri 22:56:39 53.6500 -62.1500 50° Northeast 580 667 41,000  Level Gander Center
Fri 22:57:39 53.7333 -61.9333 57° Northeast 580 667 41,000  Level Gander Center
Fri 22:58:39 53.8167 -61.7000 59° Northeast 580 667 41,000  Level Gander Center
Fri 22:59:39 53.9167 -61.4500 56° Northeast 580 667 41,000  Level Gander Center
Fri 23:00:39 54.0000 -61.2500 55° Northeast 580 667 41,000  Level Gander Center
Fri 23:01:39 54.1000 -61.0000 56° Northeast 580 667 41,000  Level Gander Center
Fri 23:02:39 54.1833 -60.7667 59° Northeast 580 667 41,000  Level Gander Center
Fri 23:03:39 54.2667 -60.5667 54° Northeast 570 656 41,000  Level Gander Center
Fri 23:04:39 54.3500 -60.3333 58° Northeast 570 656 41,000  Level Gander Center
Fri 23:05:39 54.4333 -60.1000 58° Northeast 570 656 41,000  Level Gander Center
Fri 23:06:39 54.5167 -59.8667 58° Northeast 570 656 41,000  Level Gander Center
Fri 23:07:39 54.6000 -59.6333 58° Northeast 570 656 41,000  Level Gander Center
Fri 23:08:39 54.6833 -59.4000 58° Northeast 570 656 41,000  Level Gander Center
Fri 23:09:39 54.7667 -59.1667 58° Northeast 570 656 41,000  Level Gander Center
Fri 23:10:39 54.8500 -58.9333 58° Northeast 570 656 41,000  Level Gander Center
Fri 23:11:39 54.9333 -58.7000 58° Northeast 570 656 41,000  Level Gander Center
Fri 23:12:39 55.0167 -58.4500 60° Northeast 560 644 41,000  Level Gander Center
Fri 23:13:39 55.1000 -58.2167 58° Northeast 570 656 41,000  Level Gander Center
Fri 23:14:39 55.1667 -58.0000 62° Northeast 570 656 41,000  Level Gander Center
Fri 23:15:00 55.5167 -57.0167 66° East 577 664 41,000  Level ETMS Enhanced Traffic Management System
Fri 23:15:39 55.2500 -57.7667 58° Northeast 570 656 41,000  Level Gander Center
Fri 23:16:39 55.3500 -57.5167 66° East 570 656 41,000  Level Gander Center
Fri 23:17:39 55.4167 -57.2833 63° Northeast 570 656 41,000  Level Gander Center
Fri 23:18:00 55.5167 -57.0167 66° East 577 664 41,000  Level ETMS Enhanced Traffic Management System
Fri 23:18:39 55.5000 -57.0333 59° Northeast 570 656 41,000  Level Gander Center
Fri 23:19:39 55.5667 -56.7833 66° East 570 656 41,000  Level Gander Center
Fri 23:20:39 55.6333 -56.5167 66° East 580 667 41,000  Level Gander Center
Fri 23:21:39 55.6833 -56.2667 70° East 570 656 41,000  Level Gander Center
Fri 23:22:39 55.7333 -56.0000 71° East 570 656 41,000  Level Gander Center
Fri 23:23:39 55.8167 -55.7500 59° Northeast 570 656 41,000  Level Gander Center
Fri 23:24:39 55.8667 -55.5000 70° East 570 656 41,000  Level Gander Center
Fri 23:25:39 55.9667 -55.2500 54° Northeast 560 644 41,000  Level Gander Center
Fri 23:26:39 56.0000 -54.9833 77° East 560 644 41,000  Level Gander Center
Fri 23:27:39 56.0500 -54.7000 72° East 560 644 41,000  Level Gander Center
Fri 23:28:39 56.0833 -54.4500 76° East 570 656 41,000  Level Gander Center
Fri 23:29:39 56.1500 -54.2000 64° Northeast 570 656 41,000  Level Gander Center
Fri 23:30:39 56.2167 -53.9500 64° Northeast 550 633 41,000  Level Gander Center
Fri 23:31:39 56.2667 -53.7000 70° East 570 656 41,000  Level Gander Center
Fri 23:32:39 56.3333 -53.4500 64° Northeast 560 644 41,000  Level Gander Center
Fri 23:33:39 56.3833 -53.1667 72° East 570 656 41,000  Level Gander Center
Fri 23:34:39 56.4333 -52.9000 71° East 570 656 41,000  Level Gander Center
Fri 23:35:39 56.4833 -52.6167 72° East 560 644 41,000  Level Gander Center
Fri 23:36:39 56.5500 -52.3667 64° Northeast 560 644 41,000  Level Gander Center
Fri 23:37:39 56.5833 -52.0833 78° East 560 644 41,000  Level Gander Center
Fri 23:38:39 56.6333 -51.8167 71° East 560 644 41,000  Level Gander Center
Fri 23:40:00 56.7069 -51.4653 69° East  Level FlightAware Approximate
Fri 23:47:00 57.0110 -49.5990 87° East  Level FlightAware Approximate
Fri 23:48:00 57.0179 -49.3182 87° East  Level FlightAware Approximate
Fri 23:49:00 57.0242 -49.0373 88° East  Level FlightAware Approximate
Fri 23:50:00 57.0299 -48.7563 88° East  Level FlightAware Approximate
Fri 23:51:00 57.0359 -48.4752 87° East  Level FlightAware Approximate
Fri 23:52:00 57.0434 -48.1943 87° East  Level FlightAware Approximate
Fri 23:53:00 57.0504 -47.9132 87° East  Level FlightAware Approximate
Fri 23:54:00 57.0566 -47.6320 88° East  Level FlightAware Approximate
Fri 23:55:00 57.0623 -47.3507 88° East  Level FlightAware Approximate
Fri 23:56:00 57.0673 -47.0694 88° East  Level FlightAware Approximate
Fri 23:57:00 57.0716 -46.7880 88° East  Level FlightAware Approximate
Fri 23:58:00 57.0754 -46.5065 88° East  Level FlightAware Approximate
Fri 23:59:00 57.0785 -46.2249 89° East  Level FlightAware Approximate
Sat 00:00:00 57.0810 -45.9434 89° East  Level FlightAware Approximate
Sat 00:01:00 57.0828 -45.6618 89° East  Level FlightAware Approximate
Sat 00:02:00 57.0840 -45.3801 89° East  Level FlightAware Approximate
Sat 00:03:00 57.0846 -45.0985 90° East  Level FlightAware Approximate
Sat 00:04:00 57.0846 -44.8168 90° East  Level FlightAware Approximate
Sat 00:05:00 57.0839 -44.5352 90° East  Level FlightAware Approximate
Sat 00:06:00 57.0826 -44.2535 90° East  Level FlightAware Approximate
Sat 00:07:00 57.0807 -43.9719 91° East  Level FlightAware Approximate
Sat 00:08:00 57.0781 -43.6903 91° East  Level FlightAware Approximate
Sat 00:09:00 57.0749 -43.4088 91° East  Level FlightAware Approximate
Sat 00:10:00 57.0711 -43.1273 91° East  Level FlightAware Approximate
Sat 00:11:00 57.0666 -42.8459 91° East  Level FlightAware Approximate
Sat 00:12:00 57.0629 -42.5645 91° East  Level FlightAware Approximate
Sat 00:13:00 57.0586 -42.2831 92° East  Level FlightAware Approximate
Sat 00:14:00 57.0536 -42.0019 92° East  Level FlightAware Approximate
Sat 00:15:00 57.0480 -41.7206 92° East  Level FlightAware Approximate
Sat 00:16:00 57.0418 -41.4395 92° East  Level FlightAware Approximate
Sat 00:17:00 57.0349 -41.1585 92° East  Level FlightAware Approximate
Sat 00:18:00 57.0275 -40.8776 93° East  Level FlightAware Approximate
Sat 00:19:00 57.0193 -40.5968 93° East  Level FlightAware Approximate
Sat 00:20:00 57.0106 -40.3161 93° East  Level FlightAware Approximate
Sat 00:21:00 57.0012 -40.0356 93° East  Level FlightAware Approximate
Sat 00:22:00 57.0095 -39.7552 86° East  Level FlightAware Approximate
Sat 00:23:00 57.0199 -39.4748 86° East  Level FlightAware Approximate
Sat 00:24:00 57.0296 -39.1941 86° East  Level FlightAware Approximate
Sat 00:25:00 57.0387 -38.9134 86° East  Level FlightAware Approximate
Sat 00:26:00 57.0471 -38.6325 87° East  Level FlightAware Approximate
Sat 00:27:00 57.0550 -38.3514 87° East  Level FlightAware Approximate
Sat 00:28:00 57.0622 -38.0703 87° East  Level FlightAware Approximate
Sat 00:29:00 57.0687 -37.7890 87° East  Level FlightAware Approximate
Sat 00:30:00 57.0747 -37.5077 88° East  Level FlightAware Approximate
Sat 00:31:00 57.0800 -37.2263 88° East  Level FlightAware Approximate
Sat 00:32:00 57.0847 -36.9448 88° East  Level FlightAware Approximate
Sat 00:33:00 57.0887 -36.6632 88° East  Level FlightAware Approximate
Sat 00:34:00 57.0921 -36.3816 89° East  Level FlightAware Approximate
Sat 00:35:00 57.0949 -36.0999 89° East  Level FlightAware Approximate
Sat 00:36:00 57.0970 -35.8182 89° East  Level FlightAware Approximate
Sat 00:37:00 57.0986 -35.5364 89° East  Level FlightAware Approximate
Sat 00:38:00 57.0994 -35.2547 90° East  Level FlightAware Approximate
Sat 00:39:00 57.0997 -34.9729 90° East  Level FlightAware Approximate
Sat 00:40:00 57.0993 -34.6912 90° East  Level FlightAware Approximate
Sat 00:41:00 57.0983 -34.4094 90° East  Level FlightAware Approximate
Sat 00:42:00 57.0967 -34.1277 90° East  Level FlightAware Approximate
Sat 00:43:00 57.0944 -33.8460 91° East  Level FlightAware Approximate
Sat 00:44:00 57.0915 -33.5643 91° East  Level FlightAware Approximate
Sat 00:45:00 57.0880 -33.2827 91° East  Level FlightAware Approximate
Sat 00:46:00 57.0838 -33.0011 91° East  Level FlightAware Approximate
Sat 00:47:00 57.0790 -32.7196 92° East  Level FlightAware Approximate
Sat 00:48:00 57.0736 -32.4382 92° East  Level FlightAware Approximate
Sat 00:49:00 57.0675 -32.1569 92° East  Level FlightAware Approximate
Sat 00:50:00 57.0608 -31.8756 92° East  Level FlightAware Approximate
Sat 00:51:00 57.0535 -31.5945 93° East  Level FlightAware Approximate
Sat 00:52:00 57.0455 -31.3135 93° East  Level FlightAware Approximate
Sat 00:53:00 57.0370 -31.0326 93° East  Level FlightAware Approximate
Sat 00:54:00 57.0278 -30.7519 93° East  Level FlightAware Approximate
Sat 00:55:00 57.0179 -30.4713 94° East  Level FlightAware Approximate
Sat 00:56:00 57.0075 -30.1908 94° East  Level FlightAware Approximate
Sat 00:57:00 56.9948 -29.9108 96° East  Level FlightAware Approximate
Sat 00:58:00 56.9781 -29.6316 96° East  Level FlightAware Approximate
Sat 00:58:24 57.0000 -30.0000 96° East 560 644 41,000  Level ETMS Enhanced Traffic Management System
Sat 00:59:00 56.9608 -29.3526 96° East  Level FlightAware Approximate
Sat 01:00:00 56.9428 -29.0739 97° East  Level FlightAware Approximate
Sat 01:01:00 56.9243 -28.7955 97° East  Level FlightAware Approximate
Sat 01:02:00 56.9051 -28.5173 97° East  Level FlightAware Approximate
Sat 01:03:00 56.8853 -28.2394 97° East  Level FlightAware Approximate
Sat 01:04:00 56.8033 -27.1721 98° East 560 644 41,000  Level FlightAware Transoceanic
Sat 01:05:00 56.7802 -26.8910 99° East 560 644 41,000  Level FlightAware Transoceanic
Sat 01:06:00 56.7564 -26.6103 99° East 560 644 41,000  Level FlightAware Transoceanic
Sat 01:07:00 56.7320 -26.3299 99° East 560 644 41,000  Level FlightAware Transoceanic
Sat 01:08:00 56.7069 -26.0500 99° East 560 644 41,000  Level FlightAware Transoceanic
Sat 01:09:00 56.6812 -25.7704 100° East 560 644 41,000  Level FlightAware Transoceanic
Sat 01:10:00 56.6549 -25.4911 100° East 560 644 41,000  Level FlightAware Transoceanic
Sat 01:11:00 56.6280 -25.2123 100° East 560 644 41,000  Level FlightAware Transoceanic
Sat 01:12:00 56.6004 -24.9339 100° East 560 644 41,000  Level FlightAware Transoceanic
Sat 01:13:00 56.5723 -24.6559 101° East 560 644 41,000  Level FlightAware Transoceanic
Sat 01:14:00 56.5435 -24.3783 101° East 560 644 41,000  Level FlightAware Transoceanic
Sat 01:15:00 56.5141 -24.1012 101° East 560 644 41,000  Level FlightAware Transoceanic
Sat 01:16:00 56.4841 -23.8244 101° East 560 644 41,000  Level FlightAware Transoceanic
Sat 01:17:00 56.4534 -23.5481 101° East 560 644 41,000  Level FlightAware Transoceanic
Sat 01:18:00 56.4222 -23.2723 102° East 560 644 41,000  Level FlightAware Transoceanic
Sat 01:19:00 56.3903 -22.9969 102° East 560 644 41,000  Level FlightAware Transoceanic
Sat 01:20:00 56.3578 -22.7220 102° East 560 644 41,000  Level FlightAware Transoceanic
Sat 01:21:00 56.3247 -22.4476 102° East 560 644 41,000  Level FlightAware Transoceanic
Sat 01:22:00 56.2911 -22.1736 103° East 560 644 41,000  Level FlightAware Transoceanic
Sat 01:23:00 56.2568 -21.9001 103° East 560 644 41,000  Level FlightAware Transoceanic
Sat 01:24:00 56.2219 -21.6271 103° East 560 644 41,000  Level FlightAware Transoceanic
Sat 01:25:00 56.1864 -21.3547 103° East 560 644 41,000  Level FlightAware Transoceanic
Sat 01:26:00 56.1503 -21.0827 104° East 560 644 41,000  Level FlightAware Transoceanic
Sat 01:27:00 56.1136 -20.8112 104° East 560 644 41,000  Level FlightAware Transoceanic
Sat 01:28:00 56.0763 -20.5403 104° East 560 644 41,000  Level FlightAware Transoceanic
Sat 01:29:00 56.0385 -20.2699 104° East 560 644 41,000 -69 Level FlightAware Transoceanic
Sat 01:30:00 56.0006 -20.0045 104° East  Level FlightAware Approximate
Sat 01:31:00 55.9623 -19.7397 104° East  Level FlightAware Approximate
Sat 01:32:00 55.9560 -19.7478 107° East  Level FlightAware Approximate
Sat 01:33:00 55.9099 -19.4872 107° East  Level FlightAware Approximate
Sat 01:34:00 55.8633 -19.2273 108° East  Level FlightAware Approximate
Sat 01:35:00 55.8161 -18.9680 108° East  Level FlightAware Approximate
Sat 01:36:00 55.7684 -18.7093 108° East  Level FlightAware Approximate
Sat 01:37:00 55.7201 -18.4513 108° East  Level FlightAware Approximate
Sat 01:38:00 55.6713 -18.1939 108° East  Level FlightAware Approximate
Sat 01:39:00 55.6220 -17.9372 109° East  Level FlightAware Approximate
Sat 01:40:00 55.5721 -17.6811 109° East  Level FlightAware Approximate
Sat 01:41:00 55.5217 -17.4256 109° East  Level FlightAware Approximate
Sat 01:42:00 55.4710 -17.1707 109° East  Level FlightAware Approximate
Sat 01:43:00 55.4199 -16.9164 109° East  Level FlightAware Approximate
Sat 01:44:00 55.3683 -16.6627 110° East  Level FlightAware Approximate
Sat 01:45:00 55.3161 -16.4096 110° East  Level FlightAware Approximate
Sat 01:46:00 55.2634 -16.1573 110° East  Level FlightAware Approximate
Sat 01:47:00 55.2103 -15.9056 110° East  Level FlightAware Approximate
Sat 01:48:00 55.1566 -15.6546 110° East  Level FlightAware Approximate
Sat 01:49:00 55.1023 -15.4042 111° Southeast  Level FlightAware Approximate
Sat 01:50:00 55.0476 -15.1546 111° Southeast  Level FlightAware Approximate
Sat 01:51:00 54.9924 -14.9056 111° Southeast  Level FlightAware Approximate
Sat 01:52:00 54.9363 -14.6575 112° Southeast  Level FlightAware Approximate
Sat 01:53:00 54.8788 -14.4108 112° Southeast  Level FlightAware Approximate
Sat 01:54:00 54.8208 -14.1648 112° Southeast  Level FlightAware Approximate
Sat 01:55:00 54.7623 -13.9195 112° Southeast  Level FlightAware Approximate
Sat 01:56:00 54.7033 -13.6749 113° Southeast  Level FlightAware Approximate
Sat 01:57:00 54.6438 -13.4310 113° Southeast  Level FlightAware Approximate
Sat 01:58:00 54.5839 -13.1879 113° Southeast  Level FlightAware Approximate
Sat 01:59:00 54.5234 -12.9454 113° Southeast  Level FlightAware Approximate
Sat 02:00:00 54.4625 -12.7037 113° Southeast  Level FlightAware Approximate
Sat 02:01:00 54.4011 -12.4627 114° Southeast  Level FlightAware Approximate
Sat 02:02:00 54.3391 -12.2224 114° Southeast  Level FlightAware Approximate
Sat 02:03:00 54.2760 -11.9835 114° Southeast  Level FlightAware Approximate
Sat 02:04:00 54.2122 -11.7454 115° Southeast  Level FlightAware Approximate
Sat 02:05:00 54.1500 -11.5064 114° Southeast  Level FlightAware Approximate
Sat 02:06:00 54.0879 -11.2678 114° Southeast  Level FlightAware Approximate
Sat 02:07:00 54.0252 -11.0299 114° Southeast  Level FlightAware Approximate
Sat 02:08:00 53.9621 -10.7927 114° Southeast  Level FlightAware Approximate
Sat 02:09:00 53.8985 -10.5562 114° Southeast  Level FlightAware Approximate
Sat 02:10:00 53.8253 -10.3286 120° Southeast  Level FlightAware Approximate
Sat 02:11:00 53.7487 -10.1043 120° Southeast  Level FlightAware Approximate
Sat 02:12:00 53.6717 -9.8808 120° Southeast  Level FlightAware Approximate
Sat 02:13:00 53.5943 -9.6581 120° Southeast  Level FlightAware Approximate
Sat 02:14:00 53.5165 -9.4363 120° Southeast  Level FlightAware Approximate
Sat 02:15:00 53.4382 -9.2153 121° Southeast  Level FlightAware Approximate
Sat 02:16:00 53.3596 -8.9951 121° Southeast  Level FlightAware Approximate
Sat 02:17:00 53.2805 -8.7757 122° Southeast  Level FlightAware Approximate
Sat 02:18:00 53.2001 -8.5580 122° Southeast  Level FlightAware Approximate
Sat 02:18:54 53.3358 -8.9840 122° Southeast 476 548 37,500  Level FlightAware UK
Sat 02:19:00 53.1194 -8.3412 122° Southeast  Level FlightAware Approximate
Sat 02:19:12 53.3161 -8.9209 118° Southeast 476 548 37,500  Level FlightAware UK
Sat 02:19:36 53.2896 -8.8368 118° Southeast 480 552 37,500  Level FlightAware UK
Sat 02:19:54 53.2698 -8.7737 118° Southeast 480 552 37,500  Level FlightAware UK
Sat 02:20:12 53.2500 -8.7106 118° Southeast 478 550 37,500  Level FlightAware UK
Sat 02:20:30 53.2300 -8.6477 118° Southeast 476 548 37,500  Level FlightAware UK
Sat 02:20:48 53.2099 -8.5850 118° Southeast 476 548 37,500  Level FlightAware UK
Sat 02:21:06 53.1900 -8.5224 118° Southeast 478 550 37,500  Level FlightAware UK
Sat 02:21:24 53.1699 -8.4599 118° Southeast 478 550 37,500  Level FlightAware UK
Sat 02:21:48 53.1428 -8.3762 118° Southeast 478 550 37,500  Level FlightAware UK
Sat 02:22:06 53.1227 -8.3138 118° Southeast 476 548 37,500  Level FlightAware UK
Sat 02:22:24 53.1028 -8.2514 118° Southeast 476 548 37,500  Level FlightAware UK
Sat 02:22:42 53.0827 -8.1890 118° Southeast 478 550 37,500  Level FlightAware UK
Sat 02:23:00 53.0625 -8.1268 118° Southeast 478 550 37,500  Level FlightAware UK
Sat 02:23:18 53.0422 -8.0647 119° Southeast 478 550 37,500  Level FlightAware UK
Sat 02:23:42 53.0150 -7.9817 119° Southeast 478 550 37,500  Level FlightAware UK
Sat 02:24:18 52.9742 -7.8573 119° Southeast 478 550 37,500 -333 Level FlightAware UK
Sat 02:24:36 52.9539 -7.7953 119° Southeast 474 545 37,200 -1,000 Descending FlightAware UK
Sat 02:24:54 52.9338 -7.7337 118° Southeast 464 534 36,900 -1,000 Descending FlightAware UK
Sat 02:25:18 52.9076 -7.6553 119° Southeast 460 529 36,500 -1,000 Descending FlightAware UK
Sat 02:25:36 52.8882 -7.5968 119° Southeast 456 525 36,200 -1,000 Descending FlightAware UK
Sat 02:25:54 52.8687 -7.5381 119° Southeast 456 525 35,900 -1,000 Descending FlightAware UK
Sat 02:26:12 52.8492 -7.4796 119° Southeast 458 527 35,600 -1,000 Descending FlightAware UK
Sat 02:26:48 52.8096 -7.3610 119° Southeast 464 534 35,000 -1,000 Descending FlightAware UK
Sat 02:27:12 52.7829 -7.2814 119° Southeast 462 532 34,600 -1,000 Descending FlightAware UK
Sat 02:27:30 52.7630 -7.2218 119° Southeast 464 534 34,300 -1,000 Descending FlightAware UK
Sat 02:27:48 52.7426 -7.1617 119° Southeast 462 532 34,000 -1,000 Descending FlightAware UK
Sat 02:28:06 52.7226 -7.1026 119° Southeast 462 532 33,700 -1,000 Descending FlightAware UK
Sat 02:28:24 52.7024 -7.0433 119° Southeast 462 532 33,400 -1,000 Descending FlightAware UK
Sat 02:28:42 52.6822 -6.9838 119° Southeast 464 534 33,100 -1,000 Descending FlightAware UK
Sat 02:29:00 52.6617 -6.9238 119° Southeast 468 539 32,800 -1,000 Descending FlightAware UK
Sat 02:29:36 52.6204 -6.8026 119° Southeast 466 536 32,200 -1,000 Descending FlightAware UK
Sat 02:29:54 52.5997 -6.7420 119° Southeast 468 539 31,900 -1,000 Descending FlightAware UK
Sat 02:30:18 52.5720 -6.6616 120° Southeast 470 541 31,500 -875 Descending FlightAware UK
Sat 02:30:42 52.5443 -6.5816 120° Southeast 472 543 31,200 -1,000 Descending FlightAware UK
Sat 02:31:00 52.5236 -6.5219 120° Southeast 472 543 30,800 -1,000 Descending FlightAware UK
Sat 02:31:30 52.4899 -6.4247 120° Southeast 470 541 30,400 -889 Descending FlightAware UK
Sat 02:31:54 52.4628 -6.3469 120° Southeast 472 543 30,000 -643 Descending FlightAware UK
Sat 02:32:54 52.3951 -6.1536 120° Southeast 468 539 29,500 -385 Descending FlightAware UK
Sat 02:33:12 52.3746 -6.0955 120° Southeast 468 539 29,500  Level FlightAware UK
Sat 02:33:36 52.3475 -6.0190 120° Southeast 468 539 29,500  Level FlightAware UK
Sat 02:33:54 52.3272 -5.9617 120° Southeast 468 539 29,500  Level FlightAware UK
Sat 02:34:12 52.3070 -5.9044 120° Southeast 468 539 29,500  Level FlightAware UK
Sat 02:34:30 52.2867 -5.8473 120° Southeast 468 539 29,500  Level FlightAware UK
Sat 02:35:06 52.2488 -5.7306 118° Southeast 466 536 29,500  Level FlightAware UK
Sat 02:35:24 52.2316 -5.6699 115° Southeast 468 539 29,500  Level FlightAware UK
Sat 02:35:42 52.2148 -5.6094 114° Southeast 468 539 29,500  Level FlightAware UK
Sat 02:36:00 52.1981 -5.5489 114° Southeast 468 539 29,500  Level FlightAware UK
Sat 02:36:18 52.1813 -5.4883 114° Southeast 468 539 29,500  Level FlightAware UK
Sat 02:36:48 52.1532 -5.3875 114° Southeast 468 539 29,500  Level FlightAware UK
Sat 02:37:06 52.1363 -5.3272 115° Southeast 468 539 29,500  Level FlightAware UK
Sat 02:37:30 52.1136 -5.2470 115° Southeast 466 536 29,500  Level FlightAware UK
Sat 02:37:48 52.0965 -5.1870 115° Southeast 466 536 29,500  Level FlightAware UK
Sat 02:38:19 52.0677 -5.0862 115° Southeast 466 536 29,500  Level FlightAware UK
Sat 02:38:36 52.0505 -5.0268 115° Southeast 468 539 29,500  Level FlightAware UK
Sat 02:38:54 52.0332 -4.9666 115° Southeast 468 539 29,500  Level FlightAware UK
Sat 02:39:18 52.0100 -4.8863 115° Southeast 468 539 29,500  Level FlightAware UK
Sat 02:39:42 51.9869 -4.8061 115° Southeast 466 536 29,500  Level FlightAware UK
Sat 02:40:01 51.9692 -4.7454 115° Southeast 468 539 29,500  Level FlightAware UK
Sat 02:40:19 51.9515 -4.6855 116° Southeast 466 536 29,500  Level FlightAware UK
Sat 02:40:37 51.9338 -4.6258 116° Southeast 468 539 29,500  Level FlightAware UK
Sat 02:40:55 51.9160 -4.5661 116° Southeast 468 539 29,500  Level FlightAware UK
Sat 02:41:13 51.8982 -4.5065 116° Southeast 468 539 29,500  Level FlightAware UK
Sat 02:41:31 51.8803 -4.4469 116° Southeast 468 539 29,500  Level FlightAware UK
Sat 02:41:49 51.8672 -4.3847 109° East 470 541 29,500  Level FlightAware UK
Sat 02:42:07 51.8583 -4.3200 102° East 468 539 29,500  Level FlightAware UK
Sat 02:42:25 51.8497 -4.2560 102° East 466 536 29,500  Level FlightAware UK
Sat 02:42:43 51.8413 -4.1920 102° East 466 536 29,500  Level FlightAware UK
Sat 02:43:07 51.8300 -4.1075 102° East 468 539 29,500  Level FlightAware UK
Sat 02:43:25 51.8213 -4.0430 102° East 468 539 29,500  Level FlightAware UK
Sat 02:43:49 51.8095 -3.9579 103° East 468 539 29,500  Level FlightAware UK
Sat 02:44:07 51.8006 -3.8944 103° East 468 539 29,500  Level FlightAware UK
Sat 02:44:25 51.7917 -3.8310 103° East 466 536 29,500  Level FlightAware UK
Sat 02:44:55 51.7768 -3.7258 103° East 466 536 29,500  Level FlightAware UK
Sat 02:45:19 51.7644 -3.6410 103° East 466 536 29,500  Level FlightAware UK
Sat 02:45:37 51.7550 -3.5777 103° East 468 539 29,500  Level FlightAware UK
Sat 02:45:55 51.7456 -3.5143 103° East 468 539 29,500  Level FlightAware UK
Sat 02:46:13 51.7362 -3.4517 104° East 468 539 29,500  Level FlightAware UK
Sat 02:46:31 51.7266 -3.3877 104° East 468 539 29,500  Level FlightAware UK
Sat 02:46:49 51.7169 -3.3237 104° East 468 539 29,500  Level FlightAware UK
Sat 02:47:13 51.7044 -3.2403 104° East 468 539 29,500 -500 Level FlightAware UK
Sat 02:47:37 51.6914 -3.1565 104° East 468 539 29,100 -1,286 Descending FlightAware UK
Sat 02:47:55 51.6815 -3.0931 104° East 466 536 28,600 -1,857 Descending FlightAware UK
Sat 02:48:19 51.6690 -3.0121 104° East 456 525 27,800 -2,000 Descending FlightAware UK
Sat 02:48:43 51.6566 -2.9323 104° East 452 520 27,000 -2,125 Descending FlightAware UK
Sat 02:49:07 51.6446 -2.8533 104° East 446 513 26,100 -2,375 Descending FlightAware UK
Sat 02:49:31 51.6324 -2.7757 104° East 440 506 25,100 -2,429 Descending FlightAware UK
Sat 02:49:49 51.6232 -2.7174 104° East 436 502 24,400 -2,500 Descending FlightAware UK
Sat 02:50:07 51.6137 -2.6604 105° East 432 497 23,600 -2,500 Descending FlightAware UK
Sat 02:50:25 51.6040 -2.6046 106° East 426 490 22,900 -2,432 Descending FlightAware UK
Sat 02:50:44 51.5944 -2.5482 105° East 424 488 22,100 -2,432 Descending FlightAware UK
Sat 02:51:02 51.5854 -2.4931 105° East 416 479 21,400 -2,429 Descending FlightAware UK
Sat 02:51:26 51.5743 -2.4205 104° East 412 474 20,400 -2,556 Descending FlightAware UK
Sat 02:51:56 51.5649 -2.3310 100° East 402 463 19,100 -2,500 Descending FlightAware UK
Sat 02:52:14 51.5592 -2.2789 100° East 398 458 18,400 -2,500 Descending FlightAware UK
Sat 02:52:32 51.5534 -2.2273 100° East 394 453 17,600 -2,500 Descending FlightAware UK
Sat 02:52:50 51.5478 -2.1753 100° East 392 451 16,900 -2,429 Descending FlightAware UK
Sat 02:53:14 51.5406 -2.1073 100° East 386 444 15,900 -2,286 Descending FlightAware UK
Sat 02:53:32 51.5355 -2.0564 99° East 382 440 15,300 -2,167 Descending FlightAware UK
Sat 02:53:50 51.5304 -2.0065 99° East 376 433 14,600 -2,286 Descending FlightAware UK
Sat 02:54:14 51.5233 -1.9409 100° East 374 430 13,700 -2,143 Descending FlightAware UK
Sat 02:54:32 51.5183 -1.8924 99° East 370 426 13,100 -2,000 Descending FlightAware UK
Sat 02:54:56 51.5120 -1.8288 99° East 366 421 12,300 -1,714 Descending FlightAware UK
Sat 02:55:14 51.5076 -1.7820 98° East 362 417 11,900 -1,167 Descending FlightAware UK
Sat 02:55:32 51.5030 -1.7347 99° East 362 417 11,600 -1,167 Descending FlightAware UK
Sat 02:55:50 51.4986 -1.6881 99° East 360 414 11,200 -1,333 Descending FlightAware UK
Sat 02:56:08 51.4940 -1.6408 99° East 356 410 10,800 -1,500 Descending FlightAware UK
Sat 02:56:26 51.4895 -1.5944 99° East 356 410 10,300 -1,571 Descending FlightAware UK
Sat 02:56:50 51.4838 -1.5353 99° East 336 387 9,700 -1,571 Descending FlightAware UK
Sat 02:57:08 51.4772 -1.4942 105° East 322 371 9,200 -1,500 Descending FlightAware UK
Sat 02:57:26 51.4665 -1.4563 114° Southeast 306 352 8,800 -1,500 Descending FlightAware UK
Sat 02:58:08 51.4386 -1.3773 120° Southeast 284 327 7,700 -1,500 Descending FlightAware UK
Sat 02:58:26 51.4273 -1.3454 120° Southeast 282 325 7,300 -1,500 Descending FlightAware UK
Sat 02:58:44 51.4159 -1.3134 120° Southeast 278 320 6,800 -1,625 Descending FlightAware UK
Sat 02:59:14 51.3972 -1.2608 120° Southeast 274 315 6,000 -1,500 Descending FlightAware UK
Sat 02:59:44 51.3789 -1.2090 120° Southeast 272 313 5,300 -1,375 Descending FlightAware UK
Sat 03:00:02 51.3681 -1.1779 119° Southeast 270 311 4,900 -1,500 Descending FlightAware UK
Sat 03:00:20 51.3575 -1.1477 119° Southeast 268 308 4,400 -1,500 Descending FlightAware UK
Sat 03:00:38 51.3469 -1.1170 119° Southeast 264 304 4,000 -1,500 Descending FlightAware UK
Sat 03:00:56 51.3368 -1.0879 119° Southeast 254 292 3,500 -1,500 Descending FlightAware UK
Sat 03:01:14 51.3266 -1.0588 119° Southeast 254 292 3,100 -1,500 Descending FlightAware UK
Sat 03:01:32 51.3163 -1.0298 120° Southeast 254 292 2,600 -1,500 Descending FlightAware UK
Sat 03:02:02 51.2995 -0.9831 120° Southeast 248 285 1,900 -1,375 Descending FlightAware UK
Sat 03:02:20 51.2896 -0.9553 120° Southeast 248 285 1,500 -1,167 Descending FlightAware UK
Sat 03:02:38 51.2797 -0.9272 119° Southeast 246 283 1,200 -1,000 Descending FlightAware UK
Sat 03:03:02 51.2668 -0.8911 120° Southeast 244 281 800 -375 Descending FlightAware UK
Sat 03:03:26 51.2563 -0.8527 114° Southeast 244 281 900 143 Climbing FlightAware UK
Sat 03:03:44 51.2505 -0.8225 107° East 244 281 900  Level FlightAware UK
Sat 03:04:02 51.2451 -0.7925 106° East 244 281 900 -286 Level FlightAware UK
Sat 03:04:26 51.2381 -0.7526 106° East 238 274 700 -571 Descending FlightAware UK
Sat 03:04:44 51.2332 -0.7248 106° East 222 255 500 -500 Descending FlightAware UK
Sat 03:05:02 51.2347 -0.6985 85° East 212 244 400 -222 Descending FlightAware UK
Sat 03:05:38 51.2457 -0.6488 71° East 212 244 300 -100 Descending FlightAware UK
Sat 03:06:02 51.2533 -0.6155 70° East 212 244 300  Level FlightAware UK
Sat 03:06:20 51.2590 -0.5906 70° East 212 244 300  Level FlightAware UK
Sat 03:06:50 51.2680 -0.5525 69° East 186 214 300  Level FlightAware UK
Sat 03:07:27 51.2942 -0.5571 354° North 182 209 300  Level FlightAware UK
Sat 03:07:51 51.3097 -0.5760 323° Northwest 178 205 300 -146 Level FlightAware UK
Sat 03:08:08 51.3196 -0.5891 320° Northwest 160 184 200 -226 Descending FlightAware UK
Sat 03:08:44 51.3212 -0.6311 273° West 150 173 100 -167 Descending FlightAware UK

Login

Don't have an account? Register now (free) for customized features, flight alerts, and more!